createdAt,value
2022-08-26T00:00:06.155Z,9.70
2022-08-26T00:01:06.115Z,7.60
2022-08-26T00:02:06.197Z,10.60
2022-08-26T00:03:06.260Z,11.10
2022-08-26T00:04:06.145Z,9.80
2022-08-26T00:05:06.105Z,12.00
2022-08-26T00:06:06.084Z,9.60
2022-08-26T00:07:06.055Z,10.10
2022-08-26T00:08:06.044Z,11.40
2022-08-26T00:09:08.039Z,10.90
2022-08-26T00:10:06.084Z,12.30
2022-08-26T00:11:06.015Z,10.00
2022-08-26T00:12:06.004Z,10.40
2022-08-26T00:13:06.224Z,9.70
2022-08-26T00:14:05.975Z,10.10
2022-08-26T00:15:05.972Z,9.90
2022-08-26T00:16:06.038Z,9.90
2022-08-26T00:17:05.945Z,10.20
2022-08-26T00:18:05.935Z,10.10
2022-08-26T00:19:06.932Z,10.40
2022-08-26T00:20:05.924Z,11.30
2022-08-26T00:21:06.088Z,10.60
2022-08-26T00:22:05.935Z,10.10
2022-08-26T00:23:06.120Z,11.10
2022-08-26T00:24:05.875Z,9.60
2022-08-26T00:25:05.866Z,10.30
2022-08-26T00:26:05.857Z,11.60
2022-08-26T00:27:06.439Z,9.90
2022-08-26T00:28:05.836Z,10.70
2022-08-26T00:29:06.005Z,9.20
2022-08-26T00:30:05.843Z,10.10
2022-08-26T00:31:05.826Z,8.60
2022-08-26T00:32:05.815Z,10.10
2022-08-26T00:33:05.874Z,11.40
2022-08-26T00:34:05.768Z,10.20
2022-08-26T00:35:05.809Z,10.30
2022-08-26T00:36:05.749Z,10.60
2022-08-26T00:37:09.418Z,10.80
2022-08-26T00:38:05.728Z,11.10
2022-08-26T00:39:05.717Z,11.40
2022-08-26T00:40:05.763Z,10.80
2022-08-26T00:41:05.733Z,10.10
2022-08-26T00:42:05.717Z,12.40
2022-08-26T00:43:07.129Z,11.40
2022-08-26T00:44:05.674Z,10.60
2022-08-26T00:45:11.541Z,11.50
2022-08-26T00:46:06.757Z,12.30
2022-08-26T00:47:05.657Z,12.80
2022-08-26T00:48:05.641Z,11.00
2022-08-26T00:49:11.920Z,11.80
2022-08-26T00:50:06.608Z,13.10
2022-08-26T00:51:05.587Z,13.00
2022-08-26T00:52:05.608Z,15.60
2022-08-26T00:53:05.640Z,14.70
2022-08-26T00:54:05.588Z,12.10
2022-08-26T00:55:05.548Z,11.60
2022-08-26T00:56:05.538Z,12.70
2022-08-26T00:57:05.535Z,14.60
2022-08-26T00:58:06.548Z,13.00
2022-08-26T00:59:05.498Z,13.20
2022-08-26T01:00:05.501Z,15.30
2022-08-26T01:01:05.515Z,12.40
2022-08-26T01:02:05.524Z,12.70
2022-08-26T01:03:05.730Z,12.70
2022-08-26T01:04:06.463Z,12.50
2022-08-26T01:05:05.440Z,11.60
2022-08-26T01:06:05.429Z,13.00
2022-08-26T01:07:06.421Z,14.00
2022-08-26T01:08:05.413Z,11.00
2022-08-26T01:09:05.467Z,11.20
2022-08-26T01:10:05.396Z,13.20
2022-08-26T01:11:05.380Z,11.50
2022-08-26T01:12:05.380Z,12.00
2022-08-26T01:13:05.353Z,12.50
2022-08-26T01:14:05.351Z,13.30
2022-08-26T01:15:05.359Z,11.50
2022-08-26T01:16:05.399Z,13.20
2022-08-26T01:17:05.319Z,12.20
2022-08-26T01:18:05.367Z,14.30
2022-08-26T01:19:05.295Z,12.20
2022-08-26T01:20:05.369Z,11.00
2022-08-26T01:21:05.270Z,11.30
2022-08-26T01:22:05.262Z,16.40
2022-08-26T01:23:05.394Z,12.30
2022-08-26T01:24:05.240Z,13.00
2022-08-26T01:25:05.259Z,12.30
2022-08-26T01:26:05.252Z,11.10
2022-08-26T01:27:05.229Z,13.10
2022-08-26T01:28:05.202Z,13.90
2022-08-26T01:29:05.190Z,15.20
2022-08-26T01:30:05.183Z,12.40
2022-08-26T01:31:05.210Z,13.60
2022-08-26T01:32:05.295Z,13.10
2022-08-26T01:33:05.142Z,15.20
2022-08-26T01:34:05.221Z,12.00
2022-08-26T01:35:05.176Z,12.80
2022-08-26T01:36:05.112Z,12.90
2022-08-26T01:37:05.389Z,14.70
2022-08-26T01:38:05.092Z,12.50
2022-08-26T01:39:05.917Z,12.70
2022-08-26T01:40:05.165Z,15.10
2022-08-26T01:41:16.389Z,14.30
2022-08-26T01:42:06.064Z,13.50
2022-08-26T01:43:05.041Z,12.70
2022-08-26T01:44:05.024Z,14.80
2022-08-26T01:45:05.055Z,15.00
2022-08-26T01:46:05.080Z,15.20
2022-08-26T01:47:05.199Z,13.40
2022-08-26T01:48:05.034Z,15.60
2022-08-26T01:49:06.456Z,12.80
2022-08-26T01:50:05.003Z,13.60
2022-08-26T01:51:04.951Z,13.40
2022-08-26T01:52:04.949Z,12.10
2022-08-26T01:53:04.957Z,13.30
2022-08-26T01:54:04.952Z,14.30
2022-08-26T01:55:04.933Z,16.30
2022-08-26T01:56:04.903Z,16.70
2022-08-26T01:57:04.894Z,12.80
2022-08-26T01:58:05.253Z,13.80
2022-08-26T01:59:04.867Z,14.40
2022-08-26T02:00:04.898Z,16.70
2022-08-26T02:01:04.876Z,17.20
2022-08-26T02:02:04.854Z,17.40
2022-08-26T02:03:04.861Z,15.10
2022-08-26T02:04:04.852Z,21.00
2022-08-26T02:05:04.814Z,17.50
2022-08-26T02:06:04.803Z,18.30
2022-08-26T02:07:04.784Z,19.00
2022-08-26T02:08:04.775Z,18.90
2022-08-26T02:09:04.765Z,20.70
2022-08-26T02:10:04.802Z,21.00
2022-08-26T02:11:04.749Z,19.40
2022-08-26T02:12:04.732Z,19.10
2022-08-26T02:13:04.769Z,21.20
2022-08-26T02:14:04.744Z,25.00
2022-08-26T02:15:05.776Z,25.90
2022-08-26T02:16:04.761Z,25.80
2022-08-26T02:17:04.684Z,25.70
2022-08-26T02:18:04.674Z,28.10
2022-08-26T02:19:04.653Z,25.20
2022-08-26T02:20:04.645Z,26.30
2022-08-26T02:21:06.626Z,26.90
2022-08-26T02:22:04.655Z,29.00
2022-08-26T02:23:04.692Z,31.70
2022-08-26T02:24:04.605Z,30.50
2022-08-26T02:25:04.584Z,34.20
2022-08-26T02:26:04.582Z,29.00
2022-08-26T02:27:09.596Z,29.70
2022-08-26T02:28:04.577Z,30.00
2022-08-26T02:29:04.555Z,30.10
2022-08-26T02:30:04.536Z,28.50
2022-08-26T02:31:04.541Z,34.90
2022-08-26T02:32:04.565Z,32.70
2022-08-26T02:33:04.542Z,35.20
2022-08-26T02:34:04.505Z,38.10
2022-08-26T02:35:04.515Z,35.30
2022-08-26T02:36:04.518Z,38.30
2022-08-26T02:37:04.469Z,38.20
2022-08-26T02:38:10.101Z,38.00
2022-08-26T02:39:05.468Z,38.00
2022-08-26T02:40:04.521Z,38.10
2022-08-26T02:41:04.424Z,37.40
2022-08-26T02:42:04.433Z,39.50
2022-08-26T02:43:04.398Z,40.80
2022-08-26T02:44:04.426Z,40.80
2022-08-26T02:45:04.391Z,44.90
2022-08-26T02:46:04.377Z,41.50
2022-08-26T02:47:04.383Z,42.60
2022-08-26T02:48:04.376Z,44.40
2022-08-26T02:49:04.338Z,49.20
2022-08-26T02:50:04.326Z,46.00
2022-08-26T02:51:04.388Z,47.80
2022-08-26T02:52:04.306Z,43.60
2022-08-26T02:53:04.363Z,43.70
2022-08-26T02:54:04.307Z,45.20
2022-08-26T02:55:04.278Z,51.90
2022-08-26T02:56:04.303Z,52.50
2022-08-26T02:57:04.244Z,54.60
2022-08-26T02:58:04.249Z,54.70
2022-08-26T02:59:04.227Z,55.70
2022-08-26T03:00:04.224Z,53.00
2022-08-26T03:01:04.980Z,56.30
2022-08-26T03:02:04.321Z,53.20
2022-08-26T03:03:04.227Z,53.40
2022-08-26T03:04:04.190Z,59.60
2022-08-26T03:05:04.183Z,60.10
2022-08-26T03:06:04.156Z,58.90
2022-08-26T03:07:04.178Z,63.60
2022-08-26T03:08:04.138Z,60.10
2022-08-26T03:09:04.120Z,60.50
2022-08-26T03:10:06.952Z,62.30
2022-08-26T03:11:04.107Z,60.60
2022-08-26T03:12:04.090Z,60.50
2022-08-26T03:13:05.212Z,64.40
2022-08-26T03:14:04.068Z,63.70
2022-08-26T03:15:16.414Z,61.90
2022-08-26T03:16:05.086Z,64.90
2022-08-26T03:17:04.042Z,63.40
2022-08-26T03:18:04.056Z,65.00
2022-08-26T03:19:04.010Z,67.70
2022-08-26T03:20:03.998Z,70.50
2022-08-26T03:21:03.995Z,69.50
2022-08-26T03:22:03.979Z,71.40
2022-08-26T03:23:04.059Z,74.20
2022-08-26T03:24:03.987Z,77.10
2022-08-26T03:25:03.949Z,75.30
2022-08-26T03:26:03.939Z,73.50
2022-08-26T03:27:05.885Z,71.10
2022-08-26T03:28:03.909Z,74.50
2022-08-26T03:29:03.900Z,73.50
2022-08-26T03:30:03.891Z,75.00
2022-08-26T03:31:03.980Z,76.90
2022-08-26T03:32:03.869Z,76.20
2022-08-26T03:33:03.866Z,73.80
2022-08-26T03:34:03.867Z,78.70
2022-08-26T03:35:03.842Z,79.90
2022-08-26T03:36:03.879Z,79.40
2022-08-26T03:37:03.830Z,86.40
2022-08-26T03:38:03.809Z,79.00
2022-08-26T03:39:03.810Z,83.90
2022-08-26T03:40:03.805Z,82.30
2022-08-26T03:41:03.779Z,81.30
2022-08-26T03:42:03.800Z,83.70
2022-08-26T03:43:03.879Z,85.40
2022-08-26T03:44:03.749Z,88.20
2022-08-26T03:45:03.753Z,88.40
2022-08-26T03:46:03.765Z,85.20
2022-08-26T03:47:03.718Z,82.80
2022-08-26T03:48:03.702Z,85.40
2022-08-26T03:49:03.732Z,88.30
2022-08-26T03:50:03.733Z,88.40
2022-08-26T03:51:03.679Z,91.30
2022-08-26T03:52:03.661Z,86.60
2022-08-26T03:53:03.754Z,87.90
2022-08-26T03:54:03.641Z,88.10
2022-08-26T03:55:03.639Z,93.70
2022-08-26T03:56:03.651Z,89.90
2022-08-26T03:57:03.611Z,88.70
2022-08-26T03:58:03.595Z,94.70
2022-08-26T03:59:03.591Z,93.90
2022-08-26T04:00:03.620Z,93.40
2022-08-26T04:01:03.601Z,93.50
2022-08-26T04:02:03.659Z,95.00
2022-08-26T04:03:04.668Z,93.60
2022-08-26T04:04:03.590Z,93.20
2022-08-26T04:05:03.581Z,95.10
2022-08-26T04:06:03.514Z,100.20
2022-08-26T04:07:03.510Z,97.70
2022-08-26T04:08:03.493Z,97.40
2022-08-26T04:09:04.215Z,100.10
2022-08-26T04:10:03.511Z,101.10
2022-08-26T04:11:03.502Z,103.00
2022-08-26T04:12:03.466Z,102.80
2022-08-26T04:13:03.442Z,101.20
2022-08-26T04:14:03.430Z,102.30
2022-08-26T04:15:03.452Z,105.80
2022-08-26T04:16:03.434Z,102.50
2022-08-26T04:17:03.412Z,106.80
2022-08-26T04:18:03.383Z,108.40
2022-08-26T04:19:03.385Z,102.20
2022-08-26T04:20:03.392Z,108.10
2022-08-26T04:21:03.359Z,104.20
2022-08-26T04:22:03.342Z,105.40
2022-08-26T04:23:03.417Z,105.70
2022-08-26T04:24:03.645Z,107.70
2022-08-26T04:25:03.322Z,106.00
2022-08-26T04:26:03.342Z,110.00
2022-08-26T04:27:03.308Z,106.00
2022-08-26T04:28:03.273Z,112.00
2022-08-26T04:29:03.273Z,108.30
2022-08-26T04:30:03.292Z,109.00
2022-08-26T04:31:03.323Z,111.30
2022-08-26T04:32:03.274Z,110.70
2022-08-26T04:33:03.232Z,108.50
2022-08-26T04:34:04.215Z,107.50
2022-08-26T04:35:03.210Z,111.80
2022-08-26T04:36:03.193Z,109.10
2022-08-26T04:37:03.216Z,106.70
2022-08-26T04:38:03.219Z,109.50
2022-08-26T04:39:03.173Z,105.20
2022-08-26T04:40:03.209Z,107.00
2022-08-26T04:41:03.153Z,106.90
2022-08-26T04:42:03.164Z,103.10
2022-08-26T04:43:03.152Z,109.30
2022-08-26T04:44:03.103Z,107.60
2022-08-26T04:45:05.876Z,110.70
2022-08-26T04:46:04.190Z,107.30
2022-08-26T04:47:03.137Z,107.30
2022-08-26T04:48:03.107Z,109.90
2022-08-26T04:49:03.062Z,107.80
2022-08-26T04:50:03.084Z,102.20
2022-08-26T04:51:03.045Z,106.20
2022-08-26T04:52:03.030Z,108.20
2022-08-26T04:53:03.018Z,104.70
2022-08-26T04:54:03.003Z,110.20
2022-08-26T04:55:03.003Z,106.30
2022-08-26T04:56:03.022Z,104.40
2022-08-26T04:57:02.973Z,106.20
2022-08-26T04:58:02.968Z,100.60
2022-08-26T04:59:02.955Z,107.10
2022-08-26T05:00:02.975Z,104.20
2022-08-26T05:01:02.936Z,102.80
2022-08-26T05:02:03.015Z,101.90
2022-08-26T05:03:02.944Z,105.60
2022-08-26T05:04:02.937Z,103.60
2022-08-26T05:05:03.894Z,105.60
2022-08-26T05:06:02.883Z,106.40
2022-08-26T05:08:12.405Z,97.80
2022-08-26T05:09:12.396Z,100.60
2022-08-26T05:10:12.342Z,102.00
2022-08-26T05:11:12.315Z,100.50
2022-08-26T05:12:12.573Z,101.20
2022-08-26T05:13:15.167Z,103.90
2022-08-26T05:14:12.288Z,99.60
2022-08-26T05:15:12.275Z,97.40
2022-08-26T05:16:12.288Z,95.50
2022-08-26T05:17:14.984Z,93.70
2022-08-26T05:18:12.285Z,95.50
2022-08-26T05:19:12.306Z,92.60
2022-08-26T05:20:13.230Z,100.90
2022-08-26T05:21:12.208Z,98.60
2022-08-26T05:22:13.242Z,88.30
2022-08-26T05:23:12.186Z,93.90
2022-08-26T05:24:12.216Z,91.00
2022-08-26T05:25:12.166Z,97.00
2022-08-26T05:26:12.156Z,91.90
2022-08-26T05:27:12.593Z,92.20
2022-08-26T05:28:12.146Z,91.80
2022-08-26T05:29:12.147Z,93.60
2022-08-26T05:30:12.145Z,88.80
2022-08-26T05:31:12.150Z,93.40
2022-08-26T05:32:12.096Z,88.20
2022-08-26T05:33:12.131Z,89.80
2022-08-26T05:34:12.074Z,91.40
2022-08-26T05:35:12.057Z,86.70
2022-08-26T05:36:12.126Z,84.10
2022-08-26T05:37:13.635Z,90.70
2022-08-26T05:38:12.956Z,87.60
2022-08-26T05:39:12.016Z,85.20
2022-08-26T05:40:12.032Z,84.10
2022-08-26T05:41:11.998Z,81.70
2022-08-26T05:42:12.016Z,82.60
2022-08-26T05:43:11.976Z,84.10
2022-08-26T05:44:12.016Z,86.50
2022-08-26T05:45:11.957Z,80.80
2022-08-26T05:46:12.015Z,81.00
2022-08-26T05:47:11.970Z,81.60
2022-08-26T05:48:11.947Z,79.90
2022-08-26T05:49:12.658Z,81.80
2022-08-26T05:50:11.977Z,80.80
2022-08-26T05:51:11.887Z,79.30
2022-08-26T05:52:11.878Z,83.70
2022-08-26T05:53:11.869Z,77.00
2022-08-26T05:54:11.868Z,76.80
2022-08-26T05:55:11.867Z,83.40
2022-08-26T05:56:11.842Z,77.90
2022-08-26T05:57:11.818Z,75.30
2022-08-26T05:58:11.818Z,75.20
2022-08-26T05:59:14.375Z,77.20
2022-08-26T06:00:11.887Z,77.20
2022-08-26T06:01:11.831Z,81.50
2022-08-26T06:02:11.792Z,73.60
2022-08-26T06:03:11.805Z,76.10
2022-08-26T06:04:11.750Z,74.60
2022-08-26T06:05:11.738Z,78.20
2022-08-26T06:06:11.768Z,76.20
2022-08-26T06:07:12.343Z,75.80
2022-08-26T06:08:11.710Z,78.20
2022-08-26T06:09:11.709Z,77.20
2022-08-26T06:10:32.178Z,79.00
2022-08-26T06:11:18.395Z,74.40
2022-08-26T06:12:12.668Z,74.10
2022-08-26T06:13:12.112Z,72.10
2022-08-26T06:14:11.680Z,74.70
2022-08-26T06:15:11.628Z,74.30
2022-08-26T06:16:11.707Z,71.00
2022-08-26T06:17:11.629Z,70.90
2022-08-26T06:18:11.599Z,71.90
2022-08-26T06:19:11.806Z,68.40
2022-08-26T06:20:11.579Z,72.40
2022-08-26T06:21:11.621Z,69.90
2022-08-26T06:22:11.580Z,68.80
2022-08-26T06:23:11.539Z,70.00
2022-08-26T06:24:11.540Z,68.80
2022-08-26T06:25:11.527Z,71.40
2022-08-26T06:26:11.553Z,66.00
2022-08-26T06:27:11.697Z,69.50
2022-08-26T06:28:11.502Z,70.00
2022-08-26T06:29:11.470Z,72.50
2022-08-26T06:30:11.519Z,63.40
2022-08-26T06:31:11.536Z,65.80
2022-08-26T06:32:11.497Z,68.60
2022-08-26T06:33:11.485Z,67.20
2022-08-26T06:34:11.429Z,65.70
2022-08-26T06:35:12.009Z,67.50
2022-08-26T06:36:11.442Z,66.90
2022-08-26T06:37:11.399Z,65.60
2022-08-26T06:38:11.419Z,64.60
2022-08-26T06:39:11.371Z,61.70
2022-08-26T06:40:11.452Z,63.60
2022-08-26T06:41:11.392Z,60.60
2022-08-26T06:42:11.975Z,62.90
2022-08-26T06:43:11.329Z,64.40
2022-08-26T06:44:15.884Z,61.90
2022-08-26T06:45:11.350Z,58.90
2022-08-26T06:46:11.801Z,55.80
2022-08-26T06:47:11.281Z,57.90
2022-08-26T06:48:11.281Z,59.80
2022-08-26T06:49:11.260Z,56.60
2022-08-26T06:50:11.334Z,57.80
2022-08-26T06:51:11.240Z,53.60
2022-08-26T06:52:11.231Z,52.40
2022-08-26T06:53:11.224Z,54.70
2022-08-26T06:54:11.240Z,57.40
2022-08-26T06:55:11.249Z,56.70
2022-08-26T06:56:11.181Z,56.00
2022-08-26T06:57:11.180Z,54.10
2022-08-26T06:58:11.170Z,55.60
2022-08-26T06:59:11.270Z,55.50
2022-08-26T07:00:11.201Z,51.60
2022-08-26T07:01:11.510Z,56.20
2022-08-26T07:02:13.572Z,51.60
2022-08-26T07:03:11.406Z,52.80
2022-08-26T07:04:11.144Z,51.40
2022-08-26T07:05:11.081Z,52.10
2022-08-26T07:06:11.122Z,53.70
2022-08-26T07:07:11.061Z,51.50
2022-08-26T07:08:11.074Z,54.10
2022-08-26T07:09:11.042Z,50.50
2022-08-26T07:10:11.041Z,51.80
2022-08-26T07:11:11.052Z,49.90
2022-08-26T07:12:11.023Z,50.30
2022-08-26T07:13:11.192Z,49.10
2022-08-26T07:14:11.051Z,51.40
2022-08-26T07:15:11.043Z,53.20
2022-08-26T07:16:10.993Z,54.10
2022-08-26T07:17:13.837Z,51.50
2022-08-26T07:18:10.962Z,51.20
2022-08-26T07:19:11.636Z,54.30
2022-08-26T07:20:10.923Z,55.20
2022-08-26T07:21:10.953Z,49.80
2022-08-26T07:22:10.942Z,54.00
2022-08-26T07:23:11.849Z,50.40
2022-08-26T07:24:11.137Z,50.60
2022-08-26T07:25:10.913Z,50.40
2022-08-26T07:26:10.862Z,50.00
2022-08-26T07:27:10.889Z,49.60
2022-08-26T07:28:10.855Z,52.30
2022-08-26T07:29:10.873Z,53.70
2022-08-26T07:30:10.850Z,48.90
2022-08-26T07:31:10.830Z,49.00
2022-08-26T07:32:10.818Z,48.10
2022-08-26T07:33:10.876Z,51.10
2022-08-26T07:34:10.818Z,45.60
2022-08-26T07:35:10.783Z,48.70
2022-08-26T07:36:10.753Z,48.90
2022-08-26T07:37:10.735Z,46.50
2022-08-26T07:38:10.763Z,45.00
2022-08-26T07:39:10.754Z,47.00
2022-08-26T07:40:10.750Z,48.50
2022-08-26T07:41:10.693Z,45.80
2022-08-26T07:42:10.694Z,45.30
2022-08-26T07:43:10.744Z,42.60
2022-08-26T07:44:10.664Z,43.10
2022-08-26T07:45:10.687Z,44.30
2022-08-26T07:46:15.897Z,42.50
2022-08-26T07:47:24.727Z,40.80
2022-08-26T07:48:11.665Z,41.00
2022-08-26T07:49:10.605Z,40.10
2022-08-26T07:50:10.605Z,37.50
2022-08-26T07:51:10.628Z,37.90
2022-08-26T07:52:10.590Z,43.40
2022-08-26T07:53:10.844Z,44.10
2022-08-26T07:54:10.565Z,42.50
2022-08-26T07:55:10.551Z,44.90
2022-08-26T07:56:10.535Z,42.20
2022-08-26T07:57:10.557Z,39.10
2022-08-26T07:58:10.513Z,40.00
2022-08-26T07:59:13.785Z,43.40
2022-08-26T08:00:10.493Z,40.30
2022-08-26T08:01:10.487Z,41.50
2022-08-26T08:02:10.465Z,38.30
2022-08-26T08:03:10.638Z,40.80
2022-08-26T08:04:10.495Z,40.00
2022-08-26T08:05:10.521Z,40.70
2022-08-26T08:06:10.428Z,40.20
2022-08-26T08:07:11.522Z,39.40
2022-08-26T08:08:26.889Z,37.90
2022-08-26T08:09:11.447Z,39.20
2022-08-26T08:10:11.614Z,37.50
2022-08-26T08:11:10.574Z,40.50
2022-08-26T08:12:14.139Z,36.80
2022-08-26T08:13:10.354Z,37.00
2022-08-26T08:14:11.836Z,39.60
2022-08-26T08:15:10.368Z,38.10
2022-08-26T08:16:12.439Z,39.00
2022-08-26T08:18:15.304Z,38.10
2022-08-26T08:19:11.294Z,36.50
2022-08-26T08:20:10.278Z,36.20
2022-08-26T08:21:21.742Z,36.50
2022-08-26T08:22:17.820Z,35.20
2022-08-26T08:23:11.247Z,38.90
2022-08-26T08:24:10.228Z,39.50
2022-08-26T08:25:10.557Z,35.70
2022-08-26T08:26:10.199Z,32.90
2022-08-26T08:27:10.208Z,35.40
2022-08-26T08:28:10.446Z,36.70
2022-08-26T08:29:10.193Z,35.10
2022-08-26T08:30:10.159Z,37.70
2022-08-26T08:31:10.222Z,35.30
2022-08-26T08:32:11.525Z,35.30
2022-08-26T08:33:10.169Z,37.30
2022-08-26T08:34:10.120Z,37.90
2022-08-26T08:35:11.082Z,36.00
2022-08-26T08:36:10.127Z,36.00
2022-08-26T08:37:11.106Z,35.50
2022-08-26T08:38:10.164Z,38.80
2022-08-26T08:39:10.089Z,39.50
2022-08-26T08:40:10.136Z,35.50
2022-08-26T08:41:10.051Z,36.30
2022-08-26T08:42:10.037Z,35.40
2022-08-26T08:43:10.254Z,38.10
2022-08-26T08:44:10.008Z,34.80
2022-08-26T08:45:09.999Z,35.50
2022-08-26T08:46:10.059Z,36.70
2022-08-26T08:47:09.989Z,36.40
2022-08-26T08:48:10.142Z,33.60
2022-08-26T08:49:09.970Z,36.10
2022-08-26T08:50:09.948Z,37.80
2022-08-26T08:51:09.969Z,41.60
2022-08-26T08:52:09.918Z,36.00
2022-08-26T08:53:09.949Z,38.00
2022-08-26T08:54:09.939Z,35.00
2022-08-26T08:55:11.127Z,35.40
2022-08-26T08:56:09.879Z,37.20
2022-08-26T08:57:09.879Z,35.90
2022-08-26T08:58:10.194Z,40.00
2022-08-26T08:59:09.882Z,35.90
2022-08-26T09:00:09.841Z,38.80
2022-08-26T09:01:09.986Z,34.00
2022-08-26T09:02:09.863Z,35.60
2022-08-26T09:03:09.808Z,38.20
2022-08-26T09:04:09.823Z,34.90
2022-08-26T09:05:09.779Z,33.60
2022-08-26T09:06:13.632Z,38.20
2022-08-26T09:07:09.768Z,40.70
2022-08-26T09:08:11.092Z,38.80
2022-08-26T09:09:09.740Z,35.50
2022-08-26T09:10:09.729Z,35.90
2022-08-26T09:11:09.722Z,40.70
2022-08-26T09:12:09.719Z,38.60
2022-08-26T09:13:09.720Z,36.70
2022-08-26T09:14:10.680Z,34.10
2022-08-26T09:15:09.679Z,35.60
2022-08-26T09:16:10.031Z,33.80
2022-08-26T09:17:09.716Z,35.20
2022-08-26T09:18:10.887Z,37.20
2022-08-26T09:19:09.657Z,33.50
2022-08-26T09:20:09.619Z,33.20
2022-08-26T09:21:09.639Z,32.90
2022-08-26T09:22:09.959Z,33.40
2022-08-26T09:23:09.780Z,33.10
2022-08-26T09:24:11.224Z,34.40
2022-08-26T09:25:11.216Z,31.70
2022-08-26T09:26:09.639Z,32.00
2022-08-26T09:27:11.472Z,30.00
2022-08-26T09:28:09.806Z,32.20
2022-08-26T09:29:09.639Z,35.70
2022-08-26T09:30:11.370Z,34.30
2022-08-26T09:31:11.513Z,34.50
2022-08-26T09:32:09.513Z,32.00
2022-08-26T09:33:14.341Z,32.50
2022-08-26T09:34:10.492Z,29.70
2022-08-26T09:35:09.463Z,33.50
2022-08-26T09:36:09.442Z,34.40
2022-08-26T09:37:09.462Z,32.10
2022-08-26T09:38:11.731Z,27.40
2022-08-26T09:39:09.419Z,31.40
2022-08-26T09:40:09.432Z,29.70
2022-08-26T09:41:09.396Z,28.80
2022-08-26T09:42:09.563Z,29.30
2022-08-26T09:43:09.502Z,31.40
2022-08-26T09:44:09.393Z,27.30
2022-08-26T09:45:11.390Z,32.80
2022-08-26T09:46:09.541Z,28.70
2022-08-26T09:47:10.008Z,33.60
2022-08-26T09:48:09.473Z,30.50
2022-08-26T09:49:09.366Z,28.30
2022-08-26T09:50:10.989Z,26.50
2022-08-26T09:51:09.346Z,28.80
2022-08-26T09:52:09.309Z,28.50
2022-08-26T09:53:10.007Z,25.40
2022-08-26T09:54:09.324Z,28.20
2022-08-26T09:55:09.359Z,29.20
2022-08-26T09:56:09.273Z,27.00
2022-08-26T09:57:10.125Z,26.60
2022-08-26T09:58:09.385Z,27.50
2022-08-26T09:59:11.061Z,30.70
2022-08-26T10:00:09.268Z,25.20
2022-08-26T10:01:09.316Z,26.30
2022-08-26T10:02:12.275Z,24.50
2022-08-26T10:03:09.417Z,22.50
2022-08-26T10:04:09.269Z,24.20
2022-08-26T10:05:10.525Z,26.70
2022-08-26T10:06:10.535Z,27.40
2022-08-26T10:07:09.212Z,25.50
2022-08-26T10:08:09.187Z,25.20
2022-08-26T10:09:10.856Z,25.00
2022-08-26T10:10:09.131Z,22.10
2022-08-26T10:11:09.102Z,21.40
2022-08-26T10:12:09.853Z,26.30
2022-08-26T10:13:10.321Z,22.80
2022-08-26T10:14:09.108Z,26.70
2022-08-26T10:15:09.086Z,20.60
2022-08-26T10:16:10.804Z,19.90
2022-08-26T10:17:09.687Z,21.40
2022-08-26T10:18:09.216Z,21.80
2022-08-26T10:19:09.060Z,20.40
2022-08-26T10:20:22.566Z,21.70
2022-08-26T10:21:11.152Z,23.20
2022-08-26T10:22:09.535Z,21.70
2022-08-26T10:23:09.207Z,20.90
2022-08-26T10:24:11.458Z,23.10
2022-08-26T10:25:09.037Z,21.60
2022-08-26T10:26:11.112Z,20.80
2022-08-26T10:27:09.994Z,23.00
2022-08-26T10:28:09.076Z,21.40
2022-08-26T10:29:08.974Z,22.30
2022-08-26T10:30:08.940Z,24.90
2022-08-26T10:31:08.986Z,20.50
2022-08-26T10:32:09.743Z,21.30
2022-08-26T10:33:10.138Z,21.50
2022-08-26T10:34:08.895Z,26.10
2022-08-26T10:35:08.904Z,21.60
2022-08-26T10:36:08.929Z,22.00
2022-08-26T10:37:15.013Z,23.90
2022-08-26T10:38:10.971Z,26.80
2022-08-26T10:39:08.848Z,25.10
2022-08-26T10:40:09.896Z,22.80
2022-08-26T10:41:09.969Z,26.30
2022-08-26T10:42:08.898Z,25.30
2022-08-26T10:43:11.011Z,27.10
2022-08-26T10:44:08.814Z,25.80
2022-08-26T10:45:12.022Z,27.10
2022-08-26T10:46:11.323Z,24.00
2022-08-26T10:47:08.784Z,27.70
2022-08-26T10:48:09.011Z,25.60
2022-08-26T10:49:08.766Z,28.30
2022-08-26T10:50:11.480Z,25.30
2022-08-26T10:51:08.873Z,28.00
2022-08-26T10:52:15.193Z,25.50
2022-08-26T10:53:10.734Z,28.00
2022-08-26T10:54:09.409Z,23.80
2022-08-26T10:55:08.760Z,26.00
2022-08-26T10:56:18.617Z,25.20
2022-08-26T10:57:10.501Z,23.30
2022-08-26T10:58:09.172Z,24.40
2022-08-26T10:59:12.348Z,22.40
2022-08-26T11:00:09.571Z,22.30
2022-08-26T11:01:10.576Z,24.90
2022-08-26T11:02:08.602Z,22.20
2022-08-26T11:03:09.458Z,22.40
2022-08-26T11:04:09.674Z,23.60
2022-08-26T11:05:08.552Z,24.30
2022-08-26T11:06:08.622Z,20.30
2022-08-26T11:07:15.979Z,24.00
2022-08-26T11:08:08.532Z,22.80
2022-08-26T11:09:08.480Z,23.60
2022-08-26T11:10:08.462Z,23.40
2022-08-26T11:11:08.431Z,22.20
2022-08-26T11:12:10.180Z,22.40
2022-08-26T11:13:08.517Z,23.50
2022-08-26T11:14:08.440Z,19.70
2022-08-26T11:15:08.389Z,21.60
2022-08-26T11:16:08.510Z,24.60
2022-08-26T11:17:08.359Z,19.00
2022-08-26T11:18:08.448Z,21.70
2022-08-26T11:19:08.349Z,23.60
2022-08-26T11:20:13.605Z,18.20
2022-08-26T11:21:10.208Z,20.40
2022-08-26T11:22:08.311Z,22.50
2022-08-26T11:23:08.326Z,23.80
2022-08-26T11:24:08.280Z,21.60
2022-08-26T11:25:08.308Z,22.50
2022-08-26T11:26:08.706Z,21.90
2022-08-26T11:27:08.250Z,22.30
2022-08-26T11:28:08.459Z,22.90
2022-08-26T11:29:12.861Z,24.50
2022-08-26T11:30:09.220Z,23.40
2022-08-26T11:31:08.263Z,21.10
2022-08-26T11:32:08.206Z,18.60
2022-08-26T11:33:08.414Z,21.90
2022-08-26T11:34:08.831Z,22.70
2022-08-26T11:35:08.191Z,21.40
2022-08-26T11:36:12.135Z,30.60
2022-08-26T11:37:08.197Z,20.50
2022-08-26T11:38:08.291Z,21.00
2022-08-26T11:39:08.181Z,22.20
2022-08-26T11:40:08.233Z,21.80
2022-08-26T11:41:08.101Z,22.00
2022-08-26T11:42:08.301Z,24.20
2022-08-26T11:43:08.221Z,20.20
2022-08-26T11:44:08.173Z,20.70
2022-08-26T11:45:08.158Z,17.70
2022-08-26T11:46:09.225Z,24.00
2022-08-26T11:47:11.512Z,22.30
2022-08-26T11:48:08.138Z,16.70
2022-08-26T11:49:08.023Z,20.50
2022-08-26T11:50:08.075Z,18.10
2022-08-26T11:51:08.469Z,18.70
2022-08-26T11:52:08.001Z,17.40
2022-08-26T11:53:07.992Z,20.60
2022-08-26T11:54:08.109Z,20.90
2022-08-26T11:55:08.043Z,18.10
2022-08-26T11:56:08.133Z,16.80
2022-08-26T11:57:09.271Z,17.40
2022-08-26T11:58:08.440Z,18.10
2022-08-26T11:59:08.023Z,20.30
2022-08-26T12:00:09.493Z,19.10
2022-08-26T12:01:09.815Z,15.60
2022-08-26T12:02:07.933Z,18.30
2022-08-26T12:03:08.552Z,19.60
2022-08-26T12:04:08.026Z,19.20
2022-08-26T12:05:07.922Z,17.30
2022-08-26T12:06:07.873Z,16.40
2022-08-26T12:07:08.896Z,17.00
2022-08-26T12:08:08.179Z,19.00
2022-08-26T12:09:08.722Z,18.50
2022-08-26T12:10:07.817Z,14.90
2022-08-26T12:11:07.814Z,14.70
2022-08-26T12:12:07.777Z,18.10
2022-08-26T12:13:07.791Z,14.50
2022-08-26T12:14:07.751Z,16.10
2022-08-26T12:15:07.857Z,16.10
2022-08-26T12:16:07.858Z,17.00
2022-08-26T12:17:07.714Z,14.90
2022-08-26T12:18:07.892Z,15.90
2022-08-26T12:19:07.851Z,16.30
2022-08-26T12:20:07.727Z,15.30
2022-08-26T12:21:07.673Z,15.60
2022-08-26T12:22:07.663Z,17.30
2022-08-26T12:23:07.693Z,18.40
2022-08-26T12:24:07.651Z,16.30
2022-08-26T12:25:07.747Z,15.60
2022-08-26T12:26:07.645Z,15.10
2022-08-26T12:27:07.642Z,17.80
2022-08-26T12:28:07.761Z,18.30
2022-08-26T12:29:19.826Z,14.40
2022-08-26T12:30:08.611Z,18.40
2022-08-26T12:31:07.563Z,14.00
2022-08-26T12:32:07.557Z,19.40
2022-08-26T12:33:15.785Z,18.30
2022-08-26T12:34:15.877Z,17.70
2022-08-26T12:35:08.549Z,21.70
2022-08-26T12:36:07.516Z,15.30
2022-08-26T12:37:07.500Z,18.80
2022-08-26T12:38:07.705Z,19.60
2022-08-26T12:39:07.526Z,16.80
2022-08-26T12:40:07.525Z,14.50
2022-08-26T12:41:07.458Z,16.50
2022-08-26T12:42:07.457Z,13.80
2022-08-26T12:43:07.457Z,18.10
2022-08-26T12:44:07.427Z,15.20
2022-08-26T12:45:07.540Z,18.20
2022-08-26T12:46:07.472Z,16.20
2022-08-26T12:47:07.387Z,16.10
2022-08-26T12:48:07.475Z,18.10
2022-08-26T12:49:07.398Z,17.30
2022-08-26T12:50:07.360Z,14.50
2022-08-26T12:51:07.365Z,19.90
2022-08-26T12:52:07.344Z,17.50